sensor_id;sensor_type;location;lat;lon;timestamp;pressure;altitude;pressure_sealevel;temperature;humidity
49841;BME280;35738;49.890;5.930;2024-02-14T00:02:22;95944.75;;;3.67;92.42
49841;BME280;35738;49.890;5.930;2024-02-14T00:04:48;95934.53;;;3.65;92.80
49841;BME280;35738;49.890;5.930;2024-02-14T00:07:15;95940.00;;;3.64;92.54
49841;BME280;35738;49.890;5.930;2024-02-14T00:09:41;95934.53;;;3.65;93.42
49841;BME280;35738;49.890;5.930;2024-02-14T00:12:08;95927.25;;;3.68;92.97
49841;BME280;35738;49.890;5.930;2024-02-14T00:14:35;95923.06;;;3.67;92.53
49841;BME280;35738;49.890;5.930;2024-02-14T00:17:02;95924.66;;;3.68;92.64
49841;BME280;35738;49.890;5.930;2024-02-14T00:19:29;95918.66;;;3.67;93.47
49841;BME280;35738;49.890;5.930;2024-02-14T00:21:55;95922.03;;;3.68;93.42
49841;BME280;35738;49.890;5.930;2024-02-14T00:24:22;95919.75;;;3.71;93.04
49841;BME280;35738;49.890;5.930;2024-02-14T00:26:50;95925.75;;;3.72;93.77
49841;BME280;35738;49.890;5.930;2024-02-14T00:29:17;95919.75;;;3.71;93.89
49841;BME280;35738;49.890;5.930;2024-02-14T00:31:43;95926.59;;;3.72;93.26
49841;BME280;35738;49.890;5.930;2024-02-14T00:34:10;95929.19;;;3.72;93.33
49841;BME280;35738;49.890;5.930;2024-02-14T00:36:37;95926.34;;;3.74;93.29
49841;BME280;35738;49.890;5.930;2024-02-14T00:39:03;95927.38;;;3.73;94.31
49841;BME280;35738;49.890;5.930;2024-02-14T00:41:30;95922.72;;;3.75;93.61
49841;BME280;35738;49.890;5.930;2024-02-14T00:43:57;95922.16;;;3.73;93.86
49841;BME280;35738;49.890;5.930;2024-02-14T00:46:23;95925.56;;;3.73;93.48
49841;BME280;35738;49.890;5.930;2024-02-14T00:48:50;95923.16;;;3.72;93.70
49841;BME280;35738;49.890;5.930;2024-02-14T00:51:16;95921.38;;;3.72;94.06
49841;BME280;35738;49.890;5.930;2024-02-14T00:53:43;95922.16;;;3.73;93.71
49841;BME280;35738;49.890;5.930;2024-02-14T00:56:09;95930.53;;;3.75;94.64
49841;BME280;35738;49.890;5.930;2024-02-14T00:58:36;95934.19;;;3.74;93.94
49841;BME280;35738;49.890;5.930;2024-02-14T01:01:02;95932.59;;;3.73;94.47
49841;BME280;35738;49.890;5.930;2024-02-14T01:03:29;95937.81;;;3.73;94.29
49841;BME280;35738;49.890;5.930;2024-02-14T01:05:56;95943.03;;;3.73;95.12
49841;BME280;35738;49.890;5.930;2024-02-14T01:08:22;95937.81;;;3.73;93.85
49841;BME280;35738;49.890;5.930;2024-02-14T01:10:49;95937.03;;;3.72;95.20
49841;BME280;35738;49.890;5.930;2024-02-14T01:13:18;95936.00;;;3.73;95.12
49841;BME280;35738;49.890;5.930;2024-02-14T01:15:45;95935.22;;;3.73;95.10
49841;BME280;35738;49.890;5.930;2024-02-14T01:18:11;95944.63;;;3.74;95.13
49841;BME280;35738;49.890;5.930;2024-02-14T01:20:38;95941.78;;;3.75;95.40
49841;BME280;35738;49.890;5.930;2024-02-14T01:23:05;95937.34;;;3.76;95.24
49841;BME280;35738;49.890;5.930;2024-02-14T01:25:31;95927.69;;;3.76;95.14
49841;BME280;35738;49.890;5.930;2024-02-14T01:27:59;95935.28;;;3.78;95.60
49841;BME280;35738;49.890;5.930;2024-02-14T01:30:26;95927.47;;;3.78;95.93
49841;BME280;35738;49.890;5.930;2024-02-14T01:32:53;95922.25;;;3.78;95.25
49841;BME280;35738;49.890;5.930;2024-02-14T01:35:20;95932.69;;;3.78;95.18
49841;BME280;35738;49.890;5.930;2024-02-14T01:37:46;95924.84;;;3.78;95.70
49841;BME280;35738;49.890;5.930;2024-02-14T01:40:13;95922.78;;;3.80;95.94
49841;BME280;35738;49.890;5.930;2024-02-14T01:42:39;95928.00;;;3.80;95.81
49841;BME280;35738;49.890;5.930;2024-02-14T01:45:06;95913.94;;;3.81;96.04
49841;BME280;35738;49.890;5.930;2024-02-14T01:47:33;95910.28;;;3.82;96.13
49841;BME280;35738;49.890;5.930;2024-02-14T01:50:00;95909.75;;;3.80;96.11
49841;BME280;35738;49.890;5.930;2024-02-14T01:52:27;95895.44;;;3.82;96.13
49841;BME280;35738;49.890;5.930;2024-02-14T01:54:54;95899.84;;;3.82;96.12
49841;BME280;35738;49.890;5.930;2024-02-14T01:57:22;95906.66;;;3.83;96.40
49841;BME280;35738;49.890;5.930;2024-02-14T01:59:49;95904.03;;;3.83;96.59
49841;BME280;35738;49.890;5.930;2024-02-14T02:02:19;95890.44;;;3.81;96.74
49841;BME280;35738;49.890;5.930;2024-02-14T02:04:46;95899.84;;;3.82;96.45
49841;BME280;35738;49.890;5.930;2024-02-14T02:07:13;95897.25;;;3.82;96.28
49841;BME280;35738;49.890;5.930;2024-02-14T02:09:39;95893.84;;;3.81;96.67
49841;BME280;35738;49.890;5.930;2024-02-14T02:12:06;95887.84;;;3.81;97.29
49841;BME280;35738;49.890;5.930;2024-02-14T02:14:34;95898.81;;;3.83;96.49
49841;BME280;35738;49.890;5.930;2024-02-14T02:17:01;95892.81;;;3.82;96.05
49841;BME280;35738;49.890;5.930;2024-02-14T02:19:31;95893.84;;;3.81;96.23
49841;BME280;35738;49.890;5.930;2024-02-14T02:22:00;95889.41;;;3.82;96.95
49841;BME280;35738;49.890;5.930;2024-02-14T02:24:27;95896.22;;;3.83;96.59
49841;BME280;35738;49.890;5.930;2024-02-14T02:26:53;95908.72;;;3.81;96.40
49841;BME280;35738;49.890;5.930;2024-02-14T02:29:20;95905.06;;;3.82;97.06
49841;BME280;35738;49.890;5.930;2024-02-14T02:31:47;95910.06;;;3.83;96.53
49841;BME280;35738;49.890;5.930;2024-02-14T02:34:14;95908.25;;;3.84;97.04
49841;BME280;35738;49.890;5.930;2024-02-14T02:36:42;95920.25;;;3.85;97.64
49841;BME280;35738;49.890;5.930;2024-02-14T02:39:11;95927.06;;;3.86;96.66
49841;BME280;35738;49.890;5.930;2024-02-14T02:41:38;95913.00;;;3.87;96.43
49841;BME280;35738;49.890;5.930;2024-02-14T02:44:05;95923.19;;;3.88;97.27
49841;BME280;35738;49.890;5.930;2024-02-14T02:46:34;95917.72;;;3.90;96.72
49841;BME280;35738;49.890;5.930;2024-02-14T02:49:01;95917.72;;;3.90;97.16
49841;BME280;35738;49.890;5.930;2024-02-14T02:51:28;95907.28;;;3.90;96.91
49841;BME280;35738;49.890;5.930;2024-02-14T02:53:56;95917.28;;;3.93;96.84
49841;BME280;35738;49.890;5.930;2024-02-14T02:56:22;95930.91;;;3.95;97.15
49841;BME280;35738;49.890;5.930;2024-02-14T02:58:55;95912.63;;;3.95;97.40
49841;BME280;35738;49.890;5.930;2024-02-14T03:01:21;95925.19;;;3.98;97.33
49841;BME280;35738;49.890;5.930;2024-02-14T03:03:50;95919.97;;;3.98;97.97
49841;BME280;35738;49.890;5.930;2024-02-14T03:06:16;95920.78;;;3.99;97.86
49841;BME280;35738;49.890;5.930;2024-02-14T03:08:43;95923.16;;;4.00;97.31
49841;BME280;35738;49.890;5.930;2024-02-14T03:11:10;95917.91;;;4.00;97.33
49841;BME280;35738;49.890;5.930;2024-02-14T03:13:37;95918.16;;;3.99;97.46
49841;BME280;35738;49.890;5.930;2024-02-14T03:16:07;95921.09;;;4.02;97.33
49841;BME280;35738;49.890;5.930;2024-02-14T03:18:33;95917.69;;;4.02;97.20
49841;BME280;35738;49.890;5.930;2024-02-14T03:21:00;95917.91;;;4.00;97.80
49841;BME280;35738;49.890;5.930;2024-02-14T03:23:27;95905.41;;;4.02;98.00
49841;BME280;35738;49.890;5.930;2024-02-14T03:25:54;95913.00;;;4.04;96.87
49841;BME280;35738;49.890;5.930;2024-02-14T03:28:20;95907.78;;;4.04;97.37
49841;BME280;35738;49.890;5.930;2024-02-14T03:30:47;95905.97;;;4.04;97.52
49841;BME280;35738;49.890;5.930;2024-02-14T03:33:14;95904.94;;;4.05;97.55
49841;BME280;35738;49.890;5.930;2024-02-14T03:35:40;95919.59;;;4.06;97.21
49841;BME280;35738;49.890;5.930;2024-02-14T03:38:10;95919.81;;;4.05;97.61
49841;BME280;35738;49.890;5.930;2024-02-14T03:40:37;95916.97;;;4.06;97.69
49841;BME280;35738;49.890;5.930;2024-02-14T03:43:04;95918.56;;;4.07;98.68
49841;BME280;35738;49.890;5.930;2024-02-14T03:45:31;95922.97;;;4.07;98.00
49841;BME280;35738;49.890;5.930;2024-02-14T03:47:58;95919.34;;;4.08;98.27
49841;BME280;35738;49.890;5.930;2024-02-14T03:50:24;95930.59;;;4.08;98.28
49841;BME280;35738;49.890;5.930;2024-02-14T03:52:51;95941.03;;;4.08;98.08
49841;BME280;35738;49.890;5.930;2024-02-14T03:55:17;95936.59;;;4.09;97.63
49841;BME280;35738;49.890;5.930;2024-02-14T03:57:45;95938.19;;;4.10;98.36
49841;BME280;35738;49.890;5.930;2024-02-14T04:00:13;95930.13;;;4.11;98.40
49841;BME280;35738;49.890;5.930;2024-02-14T04:02:40;95943.75;;;4.13;98.29
49841;BME280;35738;49.890;5.930;2024-02-14T04:05:07;95938.53;;;4.13;98.63
49841;BME280;35738;49.890;5.930;2024-02-14T04:07:35;95948.50;;;4.16;98.27
49841;BME280;35738;49.890;5.930;2024-02-14T04:10:02;95948.50;;;4.16;98.47
49841;BME280;35738;49.890;5.930;2024-02-14T04:12:29;95955.31;;;4.17;97.86
49841;BME280;35738;49.890;5.930;2024-02-14T04:14:55;95951.66;;;4.18;97.94
49841;BME280;35738;49.890;5.930;2024-02-14T04:17:22;95964.47;;;4.20;98.65
49841;BME280;35738;49.890;5.930;2024-02-14T04:19:50;95951.19;;;4.21;98.62
49841;BME280;35738;49.890;5.930;2024-02-14T04:22:16;95950.16;;;4.22;98.43
49841;BME280;35738;49.890;5.930;2024-02-14T04:24:43;95954.34;;;4.23;98.47
49841;BME280;35738;49.890;5.930;2024-02-14T04:27:09;95949.91;;;4.24;98.78
49841;BME280;35738;49.890;5.930;2024-02-14T04:29:36;95946.50;;;4.23;98.80
49841;BME280;35738;49.890;5.930;2024-02-14T04:32:02;95959.09;;;4.26;98.71
49841;BME280;35738;49.890;5.930;2024-02-14T04:34:30;95958.31;;;4.26;99.10
49841;BME280;35738;49.890;5.930;2024-02-14T04:36:57;95947.84;;;4.26;98.69
49841;BME280;35738;49.890;5.930;2024-02-14T04:39:24;95954.44;;;4.29;98.56
49841;BME280;35738;49.890;5.930;2024-02-14T04:41:50;95942.97;;;4.30;98.59
49841;BME280;35738;49.890;5.930;2024-02-14T04:44:27;95955.00;;;4.31;98.81
49841;BME280;35738;49.890;5.930;2024-02-14T04:46:54;95950.09;;;4.34;98.71
49841;BME280;35738;49.890;5.930;2024-02-14T04:49:22;95953.25;;;4.36;98.95
49841;BME280;35738;49.890;5.930;2024-02-14T04:51:48;95955.94;;;4.41;99.10
49841;BME280;35738;49.890;5.930;2024-02-14T04:54:15;95959.44;;;4.47;99.04
49841;BME280;35738;49.890;5.930;2024-02-14T04:56:42;95960.00;;;4.49;98.38
49841;BME280;35738;49.890;5.930;2024-02-14T04:59:09;95966.25;;;4.48;98.92
49841;BME280;35738;49.890;5.930;2024-02-14T05:01:35;95961.03;;;4.48;98.86
49841;BME280;35738;49.890;5.930;2024-02-14T05:04:02;95961.03;;;4.48;99.55
49841;BME280;35738;49.890;5.930;2024-02-14T05:06:29;95962.63;;;4.49;98.82
49841;BME280;35738;49.890;5.930;2024-02-14T05:08:56;95973.63;;;4.51;98.94
49841;BME280;35738;49.890;5.930;2024-02-14T05:11:22;95964.75;;;4.52;98.92
49841;BME280;35738;49.890;5.930;2024-02-14T05:13:49;95970.53;;;4.54;98.91
49841;BME280;35738;49.890;5.930;2024-02-14T05:16:20;95968.47;;;4.56;98.77
49841;BME280;35738;49.890;5.930;2024-02-14T05:18:47;95966.41;;;4.58;99.13
49841;BME280;35738;49.890;5.930;2024-02-14T05:21:14;95969.56;;;4.60;99.25
49841;BME280;35738;49.890;5.930;2024-02-14T05:23:41;95967.75;;;4.61;99.29
49841;BME280;35738;49.890;5.930;2024-02-14T05:26:10;95969.09;;;4.63;98.84
49841;BME280;35738;49.890;5.930;2024-02-14T05:28:37;95969.66;;;4.65;98.67
49841;BME280;35738;49.890;5.930;2024-02-14T05:31:03;95969.41;;;4.67;99.34
49841;BME280;35738;49.890;5.930;2024-02-14T05:33:30;95970.22;;;4.67;99.36
49841;BME280;35738;49.890;5.930;2024-02-14T05:35:56;95982.25;;;4.68;99.01
49841;BME280;35738;49.890;5.930;2024-02-14T05:38:23;95973.84;;;4.66;99.15
49841;BME280;35738;49.890;5.930;2024-02-14T05:40:50;95985.91;;;4.67;99.78
49841;BME280;35738;49.890;5.930;2024-02-14T05:43:16;95985.91;;;4.67;98.89
49841;BME280;35738;49.890;5.930;2024-02-14T05:45:47;95991.69;;;4.69;99.36
49841;BME280;35738;49.890;5.930;2024-02-14T05:48:13;95983.84;;;4.69;100.00
49841;BME280;35738;49.890;5.930;2024-02-14T05:50:41;95980.19;;;4.70;99.00
49841;BME280;35738;49.890;5.930;2024-02-14T05:53:07;95977.03;;;4.68;99.76
49841;BME280;35738;49.890;5.930;2024-02-14T05:55:34;95985.41;;;4.70;99.88
49841;BME280;35738;49.890;5.930;2024-02-14T05:58:00;95975.75;;;4.71;99.55
49841;BME280;35738;49.890;5.930;2024-02-14T06:00:27;95981.78;;;4.71;99.60
49841;BME280;35738;49.890;5.930;2024-02-14T06:02:55;95985.41;;;4.70;99.66
49841;BME280;35738;49.890;5.930;2024-02-14T06:05:22;95980.19;;;4.70;99.28
49841;BME280;35738;49.890;5.930;2024-02-14T06:07:49;95985.19;;;4.72;99.99
49841;BME280;35738;49.890;5.930;2024-02-14T06:10:17;95985.41;;;4.70;99.84
49841;BME280;35738;49.890;5.930;2024-02-14T06:12:44;95997.44;;;4.71;100.00
49841;BME280;35738;49.890;5.930;2024-02-14T06:15:11;95987.78;;;4.72;100.00
49841;BME280;35738;49.890;5.930;2024-02-14T06:17:37;96001.41;;;4.74;100.00
49841;BME280;35738;49.890;5.930;2024-02-14T06:20:05;96000.63;;;4.73;100.00
49841;BME280;35738;49.890;5.930;2024-02-14T06:22:34;96012.66;;;4.74;99.66
49841;BME280;35738;49.890;5.930;2024-02-14T06:25:13;96011.38;;;4.77;100.00
49841;BME280;35738;49.890;5.930;2024-02-14T06:27:39;96010.59;;;4.76;99.49
49841;BME280;35738;49.890;5.930;2024-02-14T06:30:06;96011.16;;;4.78;100.00
49841;BME280;35738;49.890;5.930;2024-02-14T06:32:34;96007.50;;;4.79;100.00
49841;BME280;35738;49.890;5.930;2024-02-14T06:35:01;96015.91;;;4.81;99.89
49841;BME280;35738;49.890;5.930;2024-02-14T06:37:28;96016.47;;;4.83;100.00
49841;BME280;35738;49.890;5.930;2024-02-14T06:40:00;96017.03;;;4.85;99.56
49841;BME280;35738;49.890;5.930;2024-02-14T06:42:26;96016.00;;;4.86;100.00
49841;BME280;35738;49.890;5.930;2024-02-14T06:44:53;96027.25;;;4.87;99.73
49841;BME280;35738;49.890;5.930;2024-02-14T06:47:19;96017.34;;;4.89;99.78
49841;BME280;35738;49.890;5.930;2024-02-14T06:49:46;96019.16;;;4.89;100.00
49841;BME280;35738;49.890;5.930;2024-02-14T06:52:12;96027.56;;;4.91;99.91
49841;BME280;35738;49.890;5.930;2024-02-14T06:54:39;96020.75;;;4.90;99.79
49841;BME280;35738;49.890;5.930;2024-02-14T06:57:05;96022.31;;;4.91;100.00
49841;BME280;35738;49.890;5.930;2024-02-14T06:59:37;96020.25;;;4.93;100.00
49841;BME280;35738;49.890;5.930;2024-02-14T07:02:16;96018.19;;;4.95;100.00
49841;BME280;35738;49.890;5.930;2024-02-14T07:04:42;96016.13;;;4.97;100.00
49841;BME280;35738;49.890;5.930;2024-02-14T07:07:09;96024.53;;;4.99;100.00
49841;BME280;35738;49.890;5.930;2024-02-14T07:09:37;96029.28;;;5.02;100.00
49841;BME280;35738;49.890;5.930;2024-02-14T07:12:09;96025.66;;;5.03;100.00
49841;BME280;35738;49.890;5.930;2024-02-14T07:14:40;96024.63;;;5.04;100.00
49841;BME280;35738;49.890;5.930;2024-02-14T07:17:08;96017.88;;;5.08;100.00
49841;BME280;35738;49.890;5.930;2024-02-14T07:19:37;96029.13;;;5.08;100.00
49841;BME280;35738;49.890;5.930;2024-02-14T07:22:11;96017.88;;;5.08;100.00
49841;BME280;35738;49.890;5.930;2024-02-14T07:24:48;96020.56;;;5.13;100.00
49841;BME280;35738;49.890;5.930;2024-02-14T07:27:18;96023.97;;;5.13;100.00
49841;BME280;35738;49.890;5.930;2024-02-14T07:29:52;96039.41;;;5.15;100.00
49841;BME280;35738;49.890;5.930;2024-02-14T07:32:32;96038.13;;;5.17;99.96
49841;BME280;35738;49.890;5.930;2024-02-14T07:35:03;96037.91;;;5.19;100.00
49841;BME280;35738;49.890;5.930;2024-02-14T07:37:34;96041.31;;;5.20;100.00
49841;BME280;35738;49.890;5.930;2024-02-14T07:40:01;96042.09;;;5.20;100.00
49841;BME280;35738;49.890;5.930;2024-02-14T07:42:29;96047.34;;;5.20;100.00
49841;BME280;35738;49.890;5.930;2024-02-14T07:44:57;96049.41;;;5.18;100.00
49841;BME280;35738;49.890;5.930;2024-02-14T07:47:24;96044.16;;;5.18;100.00
49841;BME280;35738;49.890;5.930;2024-02-14T07:49:51;96048.16;;;5.21;100.00
49841;BME280;35738;49.890;5.930;2024-02-14T07:52:19;96048.94;;;5.21;100.00
49841;BME280;35738;49.890;5.930;2024-02-14T07:54:46;96052.91;;;5.24;100.00
49841;BME280;35738;49.890;5.930;2024-02-14T07:57:12;96052.66;;;5.25;100.00
49841;BME280;35738;49.890;5.930;2024-02-14T07:59:40;96050.03;;;5.25;100.00
49841;BME280;35738;49.890;5.930;2024-02-14T08:02:18;96053.44;;;5.26;100.00
49841;BME280;35738;49.890;5.930;2024-02-14T08:05:22;96059.47;;;5.26;100.00
49841;BME280;35738;49.890;5.930;2024-02-14T08:07:50;96057.66;;;5.27;100.00
49841;BME280;35738;49.890;5.930;2024-02-14T08:10:18;96063.19;;;5.30;100.00
49841;BME280;35738;49.890;5.930;2024-02-14T08:12:45;96055.88;;;5.32;100.00
49841;BME280;35738;49.890;5.930;2024-02-14T08:15:14;96068.47;;;5.35;100.00
49841;BME280;35738;49.890;5.930;2024-02-14T08:17:41;96055.41;;;5.35;100.00
49841;BME280;35738;49.890;5.930;2024-02-14T08:20:12;96067.44;;;5.36;100.00
49841;BME280;35738;49.890;5.930;2024-02-14T08:22:40;96074.84;;;5.39;100.00
49841;BME280;35738;49.890;5.930;2024-02-14T08:25:06;96072.22;;;5.39;100.00
49841;BME280;35738;49.890;5.930;2024-02-14T08:27:33;96075.84;;;5.38;100.00
49841;BME280;35738;49.890;5.930;2024-02-14T08:29:59;96080.69;;;5.46;100.00
49841;BME280;35738;49.890;5.930;2024-02-14T08:32:26;96069.19;;;5.47;100.00
49841;BME280;35738;49.890;5.930;2024-02-14T08:34:53;96079.16;;;5.51;100.00
49841;BME280;35738;49.890;5.930;2024-02-14T08:37:20;96088.38;;;5.53;100.00
49841;BME280;35738;49.890;5.930;2024-02-14T08:39:46;96083.91;;;5.54;100.00
49841;BME280;35738;49.890;5.930;2024-02-14T08:42:13;96083.91;;;5.54;100.00
49841;BME280;35738;49.890;5.930;2024-02-14T08:44:40;96075.81;;;5.55;100.00
49841;BME280;35738;49.890;5.930;2024-02-14T08:47:17;96078.78;;;5.59;100.00
49841;BME280;35738;49.890;5.930;2024-02-14T08:49:45;96080.13;;;5.61;100.00
49841;BME280;35738;49.890;5.930;2024-02-14T08:52:20;96086.69;;;5.64;100.00
49841;BME280;35738;49.890;5.930;2024-02-14T08:55:00;96089.06;;;5.65;100.00
49841;BME280;35738;49.890;5.930;2024-02-14T08:57:27;96083.09;;;5.70;100.00
49841;BME280;35738;49.890;5.930;2024-02-14T08:59:53;96088.63;;;5.73;100.00
49841;BME280;35738;49.890;5.930;2024-02-14T09:02:20;96076.09;;;5.75;100.00
49841;BME280;35738;49.890;5.930;2024-02-14T09:04:48;96085.31;;;5.78;100.00
49841;BME280;35738;49.890;5.930;2024-02-14T09:07:16;96088.47;;;5.80;100.00
49841;BME280;35738;49.890;5.930;2024-02-14T09:09:42;96080.69;;;5.85;100.00
49841;BME280;35738;49.890;5.930;2024-02-14T09:12:09;96091.16;;;5.85;100.00
49841;BME280;35738;49.890;5.930;2024-02-14T09:14:36;96090.66;;;5.88;100.00
49841;BME280;35738;49.890;5.930;2024-02-14T09:17:02;96085.41;;;5.88;100.00
49841;BME280;35738;49.890;5.930;2024-02-14T09:19:29;96084.97;;;5.91;100.00
49841;BME280;35738;49.890;5.930;2024-02-14T09:21:56;96092.91;;;5.96;100.00
49841;BME280;35738;49.890;5.930;2024-02-14T09:24:33;96093.50;;;6.03;100.00
49841;BME280;35738;49.890;5.930;2024-02-14T09:27:00;96082.53;;;6.06;100.00
49841;BME280;35738;49.890;5.930;2024-02-14T09:29:29;96086.47;;;6.09;100.00
49841;BME280;35738;49.890;5.930;2024-02-14T09:31:57;96091.56;;;6.16;100.00
49841;BME280;35738;49.890;5.930;2024-02-14T09:34:24;96090.81;;;6.20;100.00
49841;BME280;35738;49.890;5.930;2024-02-14T09:36:52;96096.41;;;6.29;100.00
49841;BME280;35738;49.890;5.930;2024-02-14T09:39:20;96096.53;;;6.39;100.00
49841;BME280;35738;49.890;5.930;2024-02-14T09:41:53;96106.00;;;6.45;100.00
49841;BME280;35738;49.890;5.930;2024-02-14T09:44:31;96110.84;;;6.53;100.00
49841;BME280;35738;49.890;5.930;2024-02-14T09:47:03;96101.38;;;6.52;100.00
49841;BME280;35738;49.890;5.930;2024-02-14T09:49:31;96110.09;;;6.58;100.00
49841;BME280;35738;49.890;5.930;2024-02-14T09:52:01;96109.63;;;6.66;100.00
49841;BME280;35738;49.890;5.930;2024-02-14T09:54:29;96113.94;;;6.77;100.00
49841;BME280;35738;49.890;5.930;2024-02-14T09:56:57;96116.84;;;6.81;100.00
49841;BME280;35738;49.890;5.930;2024-02-14T09:59:24;96117.69;;;6.86;100.00
49841;BME280;35738;49.890;5.930;2024-02-14T10:01:51;96111.63;;;6.81;100.00
49841;BME280;35738;49.890;5.930;2024-02-14T10:04:18;96112.16;;;6.83;100.00
49841;BME280;35738;49.890;5.930;2024-02-14T10:06:48;96114.50;;;6.79;100.00
49841;BME280;35738;49.890;5.930;2024-02-14T10:09:20;96115.31;;;6.85;100.00
49841;BME280;35738;49.890;5.930;2024-02-14T10:11:47;96118.03;;;6.95;100.00
49841;BME280;35738;49.890;5.930;2024-02-14T10:14:14;96125.91;;;6.95;100.00
49841;BME280;35738;49.890;5.930;2024-02-14T10:16:41;96126.41;;;6.92;100.00
49841;BME280;35738;49.890;5.930;2024-02-14T10:19:18;96130.56;;;6.88;100.00
49841;BME280;35738;49.890;5.930;2024-02-14T10:22:00;96136.38;;;6.90;100.00
49841;BME280;35738;49.890;5.930;2024-02-14T10:24:33;96130.56;;;6.88;100.00
49841;BME280;35738;49.890;5.930;2024-02-14T10:26:59;96116.44;;;6.89;100.00
49841;BME280;35738;49.890;5.930;2024-02-14T10:29:26;96125.91;;;6.95;100.00
49841;BME280;35738;49.890;5.930;2024-02-14T10:31:53;96121.47;;;6.95;100.00
49841;BME280;35738;49.890;5.930;2024-02-14T10:34:24;96119.16;;;7.04;100.00
49841;BME280;35738;49.890;5.930;2024-02-14T10:36:53;96120.81;;;7.10;100.00
49841;BME280;35738;49.890;5.930;2024-02-14T10:39:24;96113.50;;;7.17;100.00
49841;BME280;35738;49.890;5.930;2024-02-14T10:41:51;96119.81;;;7.21;100.00
49841;BME280;35738;49.890;5.930;2024-02-14T10:44:18;96118.25;;;7.20;100.00
49841;BME280;35738;49.890;5.930;2024-02-14T10:46:46;96121.41;;;7.22;100.00
49841;BME280;35738;49.890;5.930;2024-02-14T10:49:14;96124.88;;;7.28;100.00
49841;BME280;35738;49.890;5.930;2024-02-14T10:51:43;96118.84;;;7.27;100.00
49841;BME280;35738;49.890;5.930;2024-02-14T10:54:15;96122.19;;;7.23;100.00
49841;BME280;35738;49.890;5.930;2024-02-14T10:56:48;96129.53;;;7.21;100.00
49841;BME280;35738;49.890;5.930;2024-02-14T10:59:17;96131.72;;;7.29;100.00
49841;BME280;35738;49.890;5.930;2024-02-14T11:01:46;96123.66;;;7.41;100.00
49841;BME280;35738;49.890;5.930;2024-02-14T11:04:13;96120.47;;;7.39;100.00
49841;BME280;35738;49.890;5.930;2024-02-14T11:06:47;96117.84;;;7.39;100.00
49841;BME280;35738;49.890;5.930;2024-02-14T11:09:14;96119.41;;;7.35;100.00
49841;BME280;35738;49.890;5.930;2024-02-14T11:11:42;96110.47;;;7.31;100.00
49841;BME280;35738;49.890;5.930;2024-02-14T11:14:18;96108.63;;;7.31;100.00
49841;BME280;35738;49.890;5.930;2024-02-14T11:16:45;96107.03;;;7.30;100.00
49841;BME280;35738;49.890;5.930;2024-02-14T11:19:14;96104.72;;;7.39;100.00
49841;BME280;35738;49.890;5.930;2024-02-14T11:22:26;96105.78;;;7.38;100.00
49841;BME280;35738;49.890;5.930;2024-02-14T11:25:32;96105.25;;;7.36;100.00
49841;BME280;35738;49.890;5.930;2024-02-14T11:28:15;96096.91;;;7.44;100.00
49841;BME280;35738;49.890;5.930;2024-02-14T11:31:02;96098.00;;;7.53;100.00
49841;BME280;35738;49.890;5.930;2024-02-14T11:33:32;96110.09;;;7.54;100.00
49841;BME280;35738;49.890;5.930;2024-02-14T11:36:07;96115.88;;;7.56;100.00
49841;BME280;35738;49.890;5.930;2024-02-14T11:38:37;96111.66;;;7.55;100.00
49841;BME280;35738;49.890;5.930;2024-02-14T11:41:03;96095.94;;;7.60;100.00
49841;BME280;35738;49.890;5.930;2024-02-14T11:43:30;96102.28;;;7.64;100.00
49841;BME280;35738;49.890;5.930;2024-02-14T11:45:57;96100.13;;;7.56;100.00
49841;BME280;35738;49.890;5.930;2024-02-14T11:48:24;96095.91;;;7.55;100.00
49841;BME280;35738;49.890;5.930;2024-02-14T11:50:53;96099.88;;;7.57;100.00
49841;BME280;35738;49.890;5.930;2024-02-14T11:53:20;96096.44;;;7.57;100.00
49841;BME280;35738;49.890;5.930;2024-02-14T11:55:47;96099.09;;;7.62;100.00
49841;BME280;35738;49.890;5.930;2024-02-14T11:58:15;96103.88;;;7.65;100.00
49841;BME280;35738;49.890;5.930;2024-02-14T12:00:46;96100.72;;;7.63;100.00
49841;BME280;35738;49.890;5.930;2024-02-14T12:03:18;96091.28;;;7.67;100.00
49841;BME280;35738;49.890;5.930;2024-02-14T12:05:47;96092.34;;;7.71;100.00
49841;BME280;35738;49.890;5.930;2024-02-14T12:08:14;96096.81;;;7.71;100.00
49841;BME280;35738;49.890;5.930;2024-02-14T12:10:44;96097.34;;;7.73;100.00
49841;BME280;35738;49.890;5.930;2024-02-14T12:13:22;96090.31;;;7.83;100.00
49841;BME280;35738;49.890;5.930;2024-02-14T12:15:50;96089.25;;;7.84;100.00
49841;BME280;35738;49.890;5.930;2024-02-14T12:18:19;96093.47;;;7.85;100.00
49841;BME280;35738;49.890;5.930;2024-02-14T12:20:47;96095.06;;;7.92;100.00
49841;BME280;35738;49.890;5.930;2024-02-14T12:23:20;96092.44;;;7.92;100.00
49841;BME280;35738;49.890;5.930;2024-02-14T12:25:48;96098.75;;;7.96;100.00
49841;BME280;35738;49.890;5.930;2024-02-14T12:28:18;96097.19;;;7.95;100.00
49841;BME280;35738;49.890;5.930;2024-02-14T12:30:49;96096.66;;;7.98;100.00
49841;BME280;35738;49.890;5.930;2024-02-14T12:33:18;96085.09;;;7.99;100.00
49841;BME280;35738;49.890;5.930;2024-02-14T12:35:46;96091.41;;;7.98;100.00
49841;BME280;35738;49.890;5.930;2024-02-14T12:38:14;96093.50;;;7.96;100.00
49841;BME280;35738;49.890;5.930;2024-02-14T12:40:41;96090.75;;;7.70;100.00
49841;BME280;35738;49.890;5.930;2024-02-14T12:43:08;96086.81;;;7.68;100.00
49841;BME280;35738;49.890;5.930;2024-02-14T12:45:36;96087.56;;;7.63;100.00
49841;BME280;35738;49.890;5.930;2024-02-14T12:48:02;96080.94;;;7.55;100.00
49841;BME280;35738;49.890;5.930;2024-02-14T12:50:31;96083.81;;;7.54;100.00
49841;BME280;35738;49.890;5.930;2024-02-14T12:52:58;96078.69;;;7.32;100.00
49841;BME280;35738;49.890;5.930;2024-02-14T12:55:25;96079.94;;;7.24;100.00
49841;BME280;35738;49.890;5.930;2024-02-14T12:57:52;96076.34;;;7.31;100.00
49841;BME280;35738;49.890;5.930;2024-02-14T13:00:18;96078.84;;;7.15;100.00
49841;BME280;35738;49.890;5.930;2024-02-14T13:02:45;96084.66;;;7.22;100.00
49841;BME280;35738;49.890;5.930;2024-02-14T13:05:12;96082.03;;;7.22;100.00
49841;BME280;35738;49.890;5.930;2024-02-14T13:07:39;96084.75;;;7.33;100.00
49841;BME280;35738;49.890;5.930;2024-02-14T13:10:06;96077.44;;;7.40;100.00
49841;BME280;35738;49.890;5.930;2024-02-14T13:12:37;96078.94;;;7.25;100.00